sensor_id;sensor_type;location;lat;lon;timestamp;pressure;altitude;pressure_sealevel;temperature
51693;BMP280;37777;53.066;21.638;2024-01-30T00:06:19;102275.25;;;0.93
51693;BMP280;37777;53.066;21.638;2024-01-30T00:13:25;102263.41;;;0.89
51693;BMP280;37777;53.066;21.638;2024-01-30T00:20:26;102269.22;;;0.86
51693;BMP280;37777;53.066;21.638;2024-01-30T00:27:28;102264.34;;;0.82
51693;BMP280;37777;53.066;21.638;2024-01-30T00:34:29;102262.09;;;0.79
51693;BMP280;37777;53.066;21.638;2024-01-30T00:41:31;102253.72;;;0.76
51693;BMP280;37777;53.066;21.638;2024-01-30T00:48:32;102243.91;;;0.76
51693;BMP280;37777;53.066;21.638;2024-01-30T00:55:35;102243.06;;;0.76
51693;BMP280;37777;53.066;21.638;2024-01-30T01:02:36;102237.53;;;0.77
51693;BMP280;37777;53.066;21.638;2024-01-30T01:09:38;102235.31;;;0.74
51693;BMP280;37777;53.066;21.638;2024-01-30T01:16:42;102245.53;;;0.77
51693;BMP280;37777;53.066;21.638;2024-01-30T01:23:44;102238.81;;;0.75
51693;BMP280;37777;53.066;21.638;2024-01-30T01:30:45;102231.84;;;0.74
51693;BMP280;37777;53.066;21.638;2024-01-30T01:46:09;102214.91;;;0.68
51693;BMP280;37777;53.066;21.638;2024-01-30T01:53:12;102201.81;;;0.66
51693;BMP280;37777;53.066;21.638;2024-01-30T02:08:42;102209.22;;;0.64
51693;BMP280;37777;53.066;21.638;2024-01-30T02:15:48;102204.69;;;0.65
51693;BMP280;37777;53.066;21.638;2024-01-30T02:22:52;102209.56;;;0.68
51693;BMP280;37777;53.066;21.638;2024-01-30T02:46:39;102203.38;;;0.56
51693;BMP280;37777;53.066;21.638;2024-01-30T02:53:40;102197.88;;;0.50
51693;BMP280;37777;53.066;21.638;2024-01-30T03:00:42;102191.84;;;0.43
51693;BMP280;37777;53.066;21.638;2024-01-30T03:07:43;102194.13;;;0.40
51693;BMP280;37777;53.066;21.638;2024-01-30T03:14:45;102189.28;;;0.37
51693;BMP280;37777;53.066;21.638;2024-01-30T03:21:46;102188.47;;;0.36
51693;BMP280;37777;53.066;21.638;2024-01-30T03:28:48;102181.50;;;0.35
51693;BMP280;37777;53.066;21.638;2024-01-30T03:44:11;102169.81;;;0.36
51693;BMP280;37777;53.066;21.638;2024-01-30T03:51:12;102148.94;;;0.33
51693;BMP280;37777;53.066;21.638;2024-01-30T03:58:16;102144.22;;;0.35
51693;BMP280;37777;53.066;21.638;2024-01-30T04:05:18;102156.50;;;0.36
51693;BMP280;37777;53.066;21.638;2024-01-30T04:12:19;102163.44;;;0.37
51693;BMP280;37777;53.066;21.638;2024-01-30T04:19:26;102162.41;;;0.38
51693;BMP280;37777;53.066;21.638;2024-01-30T04:26:28;102164.03;;;0.39
51693;BMP280;37777;53.066;21.638;2024-01-30T04:33:29;102156.28;;;0.38
51693;BMP280;37777;53.066;21.638;2024-01-30T04:40:31;102156.50;;;0.36
51693;BMP280;37777;53.066;21.638;2024-01-30T04:47:51;102156.28;;;0.38
51693;BMP280;37777;53.066;21.638;2024-01-30T04:54:53;102152.22;;;0.35
51693;BMP280;37777;53.066;21.638;2024-01-30T05:01:56;102157.06;;;0.38
51693;BMP280;37777;53.066;21.638;2024-01-30T05:08:57;102151.75;;;0.38
51693;BMP280;37777;53.066;21.638;2024-01-30T05:24:21;102154.56;;;0.43
51693;BMP280;37777;53.066;21.638;2024-01-30T05:31:24;102147.97;;;0.46
51693;BMP280;37777;53.066;21.638;2024-01-30T05:38:28;102149.00;;;0.45
51693;BMP280;37777;53.066;21.638;2024-01-30T06:02:42;102156.66;;;0.41
51693;BMP280;37777;53.066;21.638;2024-01-30T06:09:43;102140.44;;;0.43
51693;BMP280;37777;53.066;21.638;2024-01-30T06:16:45;102143.91;;;0.43
51693;BMP280;37777;53.066;21.638;2024-01-30T06:32:15;102155.94;;;0.46
51693;BMP280;37777;53.066;21.638;2024-01-30T06:47:44;102147.50;;;0.49
51693;BMP280;37777;53.066;21.638;2024-01-30T06:54:46;102142.31;;;0.54
51693;BMP280;37777;53.066;21.638;2024-01-30T07:10:10;102166.72;;;0.70
51693;BMP280;37777;53.066;21.638;2024-01-30T07:17:11;102162.31;;;0.75
51693;BMP280;37777;53.066;21.638;2024-01-30T07:24:13;102170.22;;;0.82
51693;BMP280;37777;53.066;21.638;2024-01-30T07:31:14;102161.97;;;0.83
51693;BMP280;37777;53.066;21.638;2024-01-30T07:55:00;102142.66;;;1.00
51693;BMP280;37777;53.066;21.638;2024-01-30T08:02:01;102142.81;;;1.05
51693;BMP280;37777;53.066;21.638;2024-01-30T08:09:03;102134.09;;;1.10
51693;BMP280;37777;53.066;21.638;2024-01-30T08:16:06;102148.34;;;1.15
51693;BMP280;37777;53.066;21.638;2024-01-30T08:23:08;102143.63;;;1.17
51693;BMP280;37777;53.066;21.638;2024-01-30T08:30:10;102145.94;;;1.26
51693;BMP280;37777;53.066;21.638;2024-01-30T08:37:11;102141.75;;;1.30
51693;BMP280;37777;53.066;21.638;2024-01-30T08:44:13;102152.63;;;1.40
51693;BMP280;37777;53.066;21.638;2024-01-30T08:51:14;102146.94;;;1.60
51693;BMP280;37777;53.066;21.638;2024-01-30T08:58:16;102148.69;;;1.78
51693;BMP280;37777;53.066;21.638;2024-01-30T09:05:20;102149.06;;;1.99
51693;BMP280;37777;53.066;21.638;2024-01-30T09:12:22;102134.09;;;2.27
51693;BMP280;37777;53.066;21.638;2024-01-30T09:19:23;102127.66;;;2.40
51693;BMP280;37777;53.066;21.638;2024-01-30T09:26:25;102127.50;;;2.46
51693;BMP280;37777;53.066;21.638;2024-01-30T09:33:27;102122.25;;;2.51
51693;BMP280;37777;53.066;21.638;2024-01-30T09:40:29;102116.31;;;2.49
51693;BMP280;37777;53.066;21.638;2024-01-30T09:47:43;102110.47;;;2.52
51693;BMP280;37777;53.066;21.638;2024-01-30T10:03:14;102102.34;;;2.59
51693;BMP280;37777;53.066;21.638;2024-01-30T10:10:16;102103.84;;;2.72
51693;BMP280;37777;53.066;21.638;2024-01-30T10:25:40;102101.16;;;3.28
51693;BMP280;37777;53.066;21.638;2024-01-30T10:32:41;102098.06;;;3.36
51693;BMP280;37777;53.066;21.638;2024-01-30T11:13:13;102055.28;;;4.18
51693;BMP280;37777;53.066;21.638;2024-01-30T11:20:27;102061.28;;;4.31
51693;BMP280;37777;53.066;21.638;2024-01-30T11:27:30;102041.78;;;4.40
51693;BMP280;37777;53.066;21.638;2024-01-30T11:43:08;102035.31;;;4.79
51693;BMP280;37777;53.066;21.638;2024-01-30T11:50:10;102028.13;;;4.90
51693;BMP280;37777;53.066;21.638;2024-01-30T12:13:57;102023.69;;;5.21
51693;BMP280;37777;53.066;21.638;2024-01-30T12:21:04;102011.91;;;5.27
51693;BMP280;37777;53.066;21.638;2024-01-30T12:28:06;102009.75;;;5.35
51693;BMP280;37777;53.066;21.638;2024-01-30T12:58:56;101991.31;;;5.79
51693;BMP280;37777;53.066;21.638;2024-01-30T13:31:30;101968.44;;;5.92
51693;BMP280;37777;53.066;21.638;2024-01-30T13:38:31;101958.53;;;5.93
51693;BMP280;37777;53.066;21.638;2024-01-30T13:45:33;101959.56;;;6.02
51693;BMP280;37777;53.066;21.638;2024-01-30T13:52:34;101962.22;;;6.12
51693;BMP280;37777;53.066;21.638;2024-01-30T13:59:45;101966.81;;;6.02
51693;BMP280;37777;53.066;21.638;2024-01-30T14:06:47;101959.84;;;6.01
51693;BMP280;37777;53.066;21.638;2024-01-30T14:14:01;101948.03;;;5.96
51693;BMP280;37777;53.066;21.638;2024-01-30T14:21:02;101942.94;;;5.85
51693;BMP280;37777;53.066;21.638;2024-01-30T14:28:04;101930.31;;;5.64
51693;BMP280;37777;53.066;21.638;2024-01-30T14:35:08;101927.09;;;5.47
51693;BMP280;37777;53.066;21.638;2024-01-30T14:42:10;101932.97;;;5.28
51693;BMP280;37777;53.066;21.638;2024-01-30T14:49:12;101935.88;;;5.06
51693;BMP280;37777;53.066;21.638;2024-01-30T14:56:14;101936.06;;;4.84
51693;BMP280;37777;53.066;21.638;2024-01-30T15:03:15;101927.94;;;4.64
51693;BMP280;37777;53.066;21.638;2024-01-30T15:10:17;101932.69;;;4.41
51693;BMP280;37777;53.066;21.638;2024-01-30T15:25:40;101930.59;;;4.05
51693;BMP280;37777;53.066;21.638;2024-01-30T15:49:38;101917.69;;;3.65
51693;BMP280;37777;53.066;21.638;2024-01-30T15:56:40;101919.75;;;3.58
51693;BMP280;37777;53.066;21.638;2024-01-30T16:12:03;101930.38;;;3.47
51693;BMP280;37777;53.066;21.638;2024-01-30T16:19:10;101921.72;;;3.40
51693;BMP280;37777;53.066;21.638;2024-01-30T16:26:12;101932.41;;;3.35
51693;BMP280;37777;53.066;21.638;2024-01-30T16:33:13;101930.72;;;3.29
51693;BMP280;37777;53.066;21.638;2024-01-30T16:40:15;101926.88;;;3.19
51693;BMP280;37777;53.066;21.638;2024-01-30T16:55:42;101922.97;;;3.05
51693;BMP280;37777;53.066;21.638;2024-01-30T17:02:44;101918.59;;;2.99
51693;BMP280;37777;53.066;21.638;2024-01-30T17:09:46;101923.13;;;2.93
51693;BMP280;37777;53.066;21.638;2024-01-30T17:25:10;101917.63;;;2.83
51693;BMP280;37777;53.066;21.638;2024-01-30T17:32:11;101918.94;;;2.80
51693;BMP280;37777;53.066;21.638;2024-01-30T17:39:13;101899.91;;;2.77
51693;BMP280;37777;53.066;21.638;2024-01-30T17:46:14;101894.97;;;2.68
51693;BMP280;37777;53.066;21.638;2024-01-30T18:01:38;101885.69;;;2.49
51693;BMP280;37777;53.066;21.638;2024-01-30T18:17:06;101876.75;;;2.43
51693;BMP280;37777;53.066;21.638;2024-01-30T18:24:07;101877.34;;;2.45
51693;BMP280;37777;53.066;21.638;2024-01-30T18:31:09;101861.88;;;2.47
51693;BMP280;37777;53.066;21.638;2024-01-30T18:38:13;101863.00;;;2.51
51693;BMP280;37777;53.066;21.638;2024-01-30T18:45:15;101846.47;;;2.55
51693;BMP280;37777;53.066;21.638;2024-01-30T18:52:17;101845.47;;;2.61
51693;BMP280;37777;53.066;21.638;2024-01-30T18:59:18;101842.03;;;2.65
51693;BMP280;37777;53.066;21.638;2024-01-30T19:06:20;101835.31;;;2.63
51693;BMP280;37777;53.066;21.638;2024-01-30T19:13:41;101839.63;;;2.64
51693;BMP280;37777;53.066;21.638;2024-01-30T19:20:42;101836.63;;;2.60
51693;BMP280;37777;53.066;21.638;2024-01-30T19:27:44;101829.44;;;2.61
51693;BMP280;37777;53.066;21.638;2024-01-30T19:34:46;101825.66;;;2.57
51693;BMP280;37777;53.066;21.638;2024-01-30T19:41:48;101827.16;;;2.52
51693;BMP280;37777;53.066;21.638;2024-01-30T19:48:49;101829.03;;;2.52
51693;BMP280;37777;53.066;21.638;2024-01-30T19:55:51;101827.94;;;2.48
51693;BMP280;37777;53.066;21.638;2024-01-30T20:19:36;101826.16;;;2.31
51693;BMP280;37777;53.066;21.638;2024-01-30T20:26:40;101814.25;;;2.22
51693;BMP280;37777;53.066;21.638;2024-01-30T20:42:04;101808.28;;;2.15
51693;BMP280;37777;53.066;21.638;2024-01-30T20:49:10;101793.13;;;2.21
51693;BMP280;37777;53.066;21.638;2024-01-30T21:13:04;101794.91;;;2.37
51693;BMP280;37777;53.066;21.638;2024-01-30T21:20:06;101785.84;;;2.38
51693;BMP280;37777;53.066;21.638;2024-01-30T21:35:29;101783.72;;;2.40
51693;BMP280;37777;53.066;21.638;2024-01-30T21:50:52;101770.88;;;2.37
51693;BMP280;37777;53.066;21.638;2024-01-30T21:57:54;101774.06;;;2.34
51693;BMP280;37777;53.066;21.638;2024-01-30T22:04:56;101770.25;;;2.30
51693;BMP280;37777;53.066;21.638;2024-01-30T22:11:57;101775.00;;;2.23
51693;BMP280;37777;53.066;21.638;2024-01-30T22:18:59;101777.09;;;2.21
51693;BMP280;37777;53.066;21.638;2024-01-30T22:26:19;101780.00;;;2.19
51693;BMP280;37777;53.066;21.638;2024-01-30T22:33:20;101777.09;;;2.21
51693;BMP280;37777;53.066;21.638;2024-01-30T22:40:24;101766.66;;;2.19
51693;BMP280;37777;53.066;21.638;2024-01-30T22:56:00;101765.09;;;2.23
51693;BMP280;37777;53.066;21.638;2024-01-30T23:03:02;101758.16;;;2.22
51693;BMP280;37777;53.066;21.638;2024-01-30T23:10:03;101753.00;;;2.15
51693;BMP280;37777;53.066;21.638;2024-01-30T23:17:15;101750.81;;;2.12
51693;BMP280;37777;53.066;21.638;2024-01-30T23:24:16;101745.16;;;2.09
51693;BMP280;37777;53.066;21.638;2024-01-30T23:31:18;101741.94;;;2.07
51693;BMP280;37777;53.066;21.638;2024-01-30T23:38:19;101741.69;;;2.08
51693;BMP280;37777;53.066;21.638;2024-01-30T23:45:39;101744.09;;;2.10
51693;BMP280;37777;53.066;21.638;2024-01-30T23:52:44;101730.44;;;2.06
51693;BMP280;37777;53.066;21.638;2024-01-30T23:59:50;101729.38;;;2.07
